Terminal Aerodrome Forecast
Issued by NWS

Home | Current Version | Previous Version | Text Only | Print | Product List | Glossary On
Versions: 1 2 3 4 5 6 7 8 9 10 11 12 13 14 15 16 17 18 19 20 21 22 23 24 25 26 27
000
FTUS41 KOKX 241700 RRA
TAFHPN
TAF
KHPN 241741Z 2418/2518 17012G24KT 3SM BR OVC006
     FM242000 18013G27KT 2SM BR SCT002 BKN010
     FM250200 21010G20KT P6SM BKN015
     FM250500 25007KT P6SM SCT020 BKN250
     FM250900 26006KT P6SM FEW020 BKN250
     FM251400 27010G18KT P6SM BKN250
      AMD NOT SKED=

USA.gov is the U.S. government's official web portal to all federal, state and local government web resources and services.